createdAt,value
2018-01-29T00:01:51.070Z,16.63
2018-01-29T00:04:29.522Z,17.20
2018-01-29T00:06:57.895Z,17.53
2018-01-29T00:09:26.219Z,16.40
2018-01-29T00:11:53.783Z,17.90
2018-01-29T00:14:21.351Z,16.77
2018-01-29T00:16:49.711Z,16.97
2018-01-29T00:19:17.255Z,17.77
2018-01-29T00:21:45.595Z,16.97
2018-01-29T00:24:14.379Z,16.50
2018-01-29T00:26:41.938Z,17.30
2018-01-29T00:29:09.503Z,18.03
2018-01-29T00:31:37.112Z,18.80
2018-01-29T00:34:19.893Z,18.90
2018-01-29T00:36:47.469Z,18.20
2018-01-29T00:39:15.022Z,18.27
2018-01-29T00:41:42.580Z,18.30
2018-01-29T00:44:29.501Z,18.03
2018-01-29T00:46:57.056Z,18.00
2018-01-29T00:49:24.642Z,18.07
2018-01-29T00:51:53.000Z,18.27
2018-01-29T00:54:20.550Z,19.87
2018-01-29T00:56:48.131Z,18.77
2018-01-29T00:59:15.721Z,19.90
2018-01-29T01:01:44.051Z,20.70
2018-01-29T01:04:14.847Z,19.80
2018-01-29T01:06:42.395Z,20.33
2018-01-29T01:09:11.471Z,21.13
2018-01-29T01:11:39.016Z,21.57
2018-01-29T01:14:13.853Z,21.70
2018-01-29T01:16:41.410Z,21.23
2018-01-29T01:19:08.954Z,20.23
2018-01-29T01:21:37.144Z,20.67
2018-01-29T01:24:11.622Z,18.23
2018-01-29T01:26:39.214Z,18.60
2018-01-29T01:29:06.808Z,17.47
2018-01-29T01:31:34.352Z,17.00
2018-01-29T01:34:02.881Z,16.77
2018-01-29T01:36:31.203Z,16.03
2018-01-29T01:38:58.762Z,14.07
2018-01-29T01:41:26.341Z,13.83
2018-01-29T01:43:53.902Z,13.90
2018-01-29T01:46:21.477Z,15.27
2018-01-29T01:48:49.085Z,15.83
2018-01-29T01:51:17.571Z,17.47
2018-01-29T01:53:45.187Z,19.20
2018-01-29T01:56:12.755Z,22.83
2018-01-29T01:58:40.293Z,24.17
2018-01-29T02:01:07.916Z,25.30
2018-01-29T02:03:35.466Z,24.97
2018-01-29T02:06:03.020Z,25.43
2018-01-29T02:08:31.444Z,25.60
2018-01-29T02:10:58.998Z,24.00
2018-01-29T02:13:26.570Z,23.00
2018-01-29T02:15:54.188Z,21.13
2018-01-29T02:18:22.501Z,20.67
2018-01-29T02:20:50.041Z,20.20
2018-01-29T02:23:17.635Z,19.33
2018-01-29T02:25:45.746Z,19.73
2018-01-29T02:28:13.305Z,17.90
2018-01-29T02:30:40.895Z,18.30
2018-01-29T02:33:09.262Z,17.57
2018-01-29T02:35:37.581Z,17.20
2018-01-29T02:38:05.162Z,16.40
2018-01-29T02:40:33.272Z,17.10
2018-01-29T02:43:00.911Z,17.17
2018-01-29T02:45:28.432Z,17.10
2018-01-29T02:47:56.012Z,16.63
2018-01-29T02:50:23.708Z,15.03
2018-01-29T02:52:51.298Z,14.20
2018-01-29T02:55:19.626Z,13.40
2018-01-29T02:57:47.979Z,14.07
2018-01-29T03:00:16.967Z,13.50
2018-01-29T03:02:44.530Z,14.30
2018-01-29T03:05:12.147Z,14.17
2018-01-29T03:07:39.727Z,14.20
2018-01-29T03:10:07.307Z,13.53
2018-01-29T03:12:45.433Z,13.60
2018-01-29T03:15:12.993Z,14.00
2018-01-29T03:17:40.567Z,14.47
2018-01-29T03:20:08.143Z,14.10
2018-01-29T03:22:41.931Z,14.87
2018-01-29T03:25:09.504Z,13.67
2018-01-29T03:27:37.052Z,14.80
2018-01-29T03:30:04.670Z,12.93
2018-01-29T03:32:32.652Z,12.70
2018-01-29T03:35:00.976Z,13.17
2018-01-29T03:37:28.514Z,12.87
2018-01-29T03:39:56.086Z,12.17
2018-01-29T03:42:23.690Z,12.07
2018-01-29T03:44:51.239Z,12.37
2018-01-29T03:47:18.824Z,13.03
2018-01-29T03:49:47.067Z,12.33
2018-01-29T03:52:14.611Z,11.80
2018-01-29T03:54:55.286Z,11.77
2018-01-29T03:57:22.835Z,11.03
2018-01-29T03:59:51.152Z,10.27
2018-01-29T04:02:19.223Z,10.00
2018-01-29T04:04:47.396Z,8.97
2018-01-29T04:07:14.923Z,9.30
2018-01-29T04:09:42.474Z,9.93
2018-01-29T04:12:10.804Z,8.63
2018-01-29T04:14:42.276Z,8.67
2018-01-29T04:17:09.800Z,8.23
2018-01-29T04:19:37.372Z,7.30
2018-01-29T04:22:04.998Z,7.00
2018-01-29T04:24:40.726Z,7.20
2018-01-29T04:27:08.325Z,7.10
2018-01-29T04:29:35.888Z,7.07
2018-01-29T04:32:03.438Z,6.90
2018-01-29T04:34:31.961Z,6.50
2018-01-29T04:36:59.521Z,7.17
2018-01-29T04:39:27.128Z,6.80
2018-01-29T04:41:54.663Z,6.70
2018-01-29T04:44:33.167Z,7.30
2018-01-29T04:47:00.724Z,6.97
2018-01-29T04:49:28.278Z,6.37
2018-01-29T04:51:55.857Z,6.63
2018-01-29T04:54:23.419Z,6.97
2018-01-29T04:56:50.970Z,7.23
2018-01-29T04:59:18.534Z,6.60
2018-01-29T05:01:46.184Z,6.80
2018-01-29T05:04:14.757Z,6.50
2018-01-29T05:06:42.306Z,6.50
2018-01-29T05:09:09.889Z,6.67
2018-01-29T05:11:37.435Z,6.90
2018-01-29T05:14:05.001Z,6.67
2018-01-29T05:16:32.603Z,6.13
2018-01-29T05:19:00.163Z,5.93
2018-01-29T05:21:29.249Z,6.70
2018-01-29T05:23:56.817Z,7.10
2018-01-29T05:26:24.439Z,7.17
2018-01-29T05:28:52.024Z,6.23
2018-01-29T05:31:19.595Z,7.20
2018-01-29T05:34:01.440Z,7.60
2018-01-29T05:36:34.874Z,7.90
2018-01-29T05:39:02.481Z,7.40
2018-01-29T05:41:30.030Z,6.93
2018-01-29T05:43:57.585Z,7.33
2018-01-29T05:46:25.168Z,7.10
2018-01-29T05:48:52.744Z,7.23
2018-01-29T05:51:20.323Z,8.43
2018-01-29T05:53:48.680Z,7.87
2018-01-29T05:56:16.280Z,7.47
2018-01-29T05:58:43.858Z,8.23
2018-01-29T06:01:11.473Z,7.97
2018-01-29T06:03:39.011Z,8.50
2018-01-29T06:06:06.576Z,8.03
2018-01-29T06:08:34.159Z,8.27
2018-01-29T06:11:01.709Z,7.60
2018-01-29T06:13:29.761Z,7.70
2018-01-29T06:15:57.353Z,6.37
2018-01-29T06:18:24.936Z,6.70
2018-01-29T06:20:52.500Z,6.57
2018-01-29T06:23:38.806Z,5.90
2018-01-29T06:26:07.108Z,5.40
2018-01-29T06:28:34.654Z,5.43
2018-01-29T06:31:02.385Z,5.77
2018-01-29T06:33:35.806Z,5.90
2018-01-29T06:36:03.402Z,6.20
2018-01-29T06:38:30.969Z,5.77
2018-01-29T06:40:58.522Z,5.33
2018-01-29T06:43:26.253Z,5.57
2018-01-29T06:45:56.300Z,5.23
2018-01-29T06:48:23.851Z,5.87
2018-01-29T06:50:51.455Z,5.50
2018-01-29T06:53:19.011Z,5.07
2018-01-29T06:55:46.553Z,5.33
2018-01-29T06:58:15.095Z,5.10
2018-01-29T07:00:43.437Z,4.77
2018-01-29T07:03:15.943Z,4.73
2018-01-29T07:05:43.495Z,5.60
2018-01-29T07:08:11.059Z,5.67
2018-01-29T07:10:38.638Z,5.90
2018-01-29T07:13:08.682Z,5.77
2018-01-29T07:15:36.284Z,5.50
2018-01-29T07:18:04.846Z,5.70
2018-01-29T07:20:33.148Z,6.00
2018-01-29T07:23:00.706Z,6.30
2018-01-29T07:25:28.294Z,6.17
2018-01-29T07:27:56.606Z,6.10
2018-01-29T07:30:24.207Z,5.97
2018-01-29T07:32:51.767Z,6.17
2018-01-29T07:35:19.350Z,6.63
2018-01-29T07:37:46.986Z,6.30
2018-01-29T07:40:14.557Z,7.00
2018-01-29T07:42:47.691Z,6.30
2018-01-29T07:45:15.243Z,6.80
2018-01-29T07:47:42.831Z,6.83
2018-01-29T07:50:13.017Z,6.47
2018-01-29T07:52:44.689Z,7.27
2018-01-29T07:55:12.270Z,6.83
2018-01-29T07:57:40.616Z,7.53
2018-01-29T08:00:08.199Z,4.87
2018-01-29T08:02:40.612Z,5.63
2018-01-29T08:05:08.636Z,5.23
2018-01-29T08:07:36.560Z,5.30
2018-01-29T08:10:04.169Z,4.73
2018-01-29T08:12:35.266Z,4.70
2018-01-29T08:15:02.837Z,4.97
2018-01-29T08:17:30.375Z,4.90
2018-01-29T08:19:57.987Z,5.10
2018-01-29T08:22:25.583Z,5.33
2018-01-29T08:24:53.917Z,5.60
2018-01-29T08:27:21.449Z,5.70
2018-01-29T08:29:49.133Z,6.03
2018-01-29T08:32:17.506Z,6.30
2018-01-29T08:34:45.493Z,6.53
2018-01-29T08:37:13.088Z,7.07
2018-01-29T08:39:41.565Z,7.37
2018-01-29T08:42:10.062Z,7.37
2018-01-29T08:44:39.438Z,7.37
2018-01-29T08:47:07.006Z,7.90
2018-01-29T08:49:34.576Z,7.23
2018-01-29T08:52:02.241Z,6.87
2018-01-29T08:54:29.919Z,6.63
2018-01-29T08:56:58.266Z,5.97
2018-01-29T08:59:25.833Z,6.27
2018-01-29T09:01:53.434Z,6.30
2018-01-29T09:04:22.779Z,6.83
2018-01-29T09:06:50.353Z,7.90
2018-01-29T09:09:17.957Z,9.07
2018-01-29T09:11:45.528Z,6.20
2018-01-29T09:14:14.867Z,6.40
2018-01-29T09:16:42.477Z,9.23
2018-01-29T09:19:10.020Z,7.07
2018-01-29T09:21:37.568Z,6.30
2018-01-29T09:24:07.278Z,5.43
2018-01-29T09:26:35.674Z,5.97
2018-01-29T09:29:03.225Z,4.70
2018-01-29T09:31:30.818Z,5.27
2018-01-29T09:33:59.110Z,5.13
2018-01-29T09:36:27.445Z,5.07
2018-01-29T09:38:55.086Z,4.87
2018-01-29T09:41:22.705Z,4.37
2018-01-29T09:43:52.305Z,4.40
2018-01-29T09:46:19.863Z,3.40
2018-01-29T09:48:47.527Z,3.50
2018-01-29T09:51:15.089Z,4.00
2018-01-29T09:53:44.598Z,4.97
2018-01-29T09:56:14.694Z,3.87
2018-01-29T09:58:42.253Z,3.77
2018-01-29T10:01:09.818Z,3.30
2018-01-29T10:03:41.688Z,3.20
2018-01-29T10:06:09.294Z,3.50
2018-01-29T10:08:36.870Z,3.07
2018-01-29T10:11:04.461Z,2.90
2018-01-29T10:13:32.017Z,3.40
2018-01-29T10:15:59.571Z,3.70
2018-01-29T10:18:27.988Z,4.70
2018-01-29T10:20:55.549Z,3.60
2018-01-29T10:23:25.987Z,3.17
2018-01-29T10:25:53.599Z,3.97
2018-01-29T10:28:21.153Z,4.10
2018-01-29T10:30:48.725Z,4.33
2018-01-29T10:33:16.307Z,4.53
2018-01-29T10:35:43.844Z,4.50
2018-01-29T10:38:11.389Z,4.77
2018-01-29T10:40:39.004Z,4.73
2018-01-29T10:43:06.588Z,5.33
2018-01-29T10:45:34.182Z,4.53
2018-01-29T10:48:01.736Z,4.40
2018-01-29T10:50:29.285Z,4.40
2018-01-29T10:52:57.820Z,4.53
2018-01-29T10:55:25.396Z,4.93
2018-01-29T10:57:52.969Z,4.23
2018-01-29T11:00:20.609Z,4.37
2018-01-29T11:02:49.250Z,4.80
2018-01-29T11:05:16.813Z,5.20
2018-01-29T11:07:44.451Z,4.07
2018-01-29T11:10:12.039Z,3.60
2018-01-29T11:12:43.331Z,3.20
2018-01-29T11:15:10.922Z,2.77
2018-01-29T11:17:38.481Z,4.63
2018-01-29T11:20:06.053Z,3.90
2018-01-29T11:22:34.575Z,3.00
2018-01-29T11:25:02.163Z,3.37
2018-01-29T11:27:30.370Z,3.00
2018-01-29T11:29:58.052Z,3.67
2018-01-29T11:32:26.372Z,3.37
2018-01-29T11:34:53.934Z,3.43
2018-01-29T11:37:21.565Z,3.33
2018-01-29T11:39:49.116Z,4.03
2018-01-29T11:42:17.420Z,3.80
2018-01-29T11:44:45.006Z,3.73
2018-01-29T11:47:12.575Z,3.63
2018-01-29T11:49:40.134Z,3.77
2018-01-29T11:52:07.739Z,3.43
2018-01-29T11:54:36.077Z,3.27
2018-01-29T11:57:03.669Z,3.73
2018-01-29T11:59:31.233Z,3.83
2018-01-29T12:01:59.563Z,3.20
2018-01-29T12:04:28.853Z,3.40
2018-01-29T12:06:56.437Z,4.13
2018-01-29T12:09:24.018Z,3.67
2018-01-29T12:11:51.594Z,2.83
2018-01-29T12:14:19.190Z,3.40
2018-01-29T12:16:46.752Z,3.40
2018-01-29T12:19:15.742Z,2.87
2018-01-29T12:21:41.904Z,2.53
2018-01-29T12:24:09.481Z,2.60
2018-01-29T12:26:37.145Z,2.47
2018-01-29T12:29:04.739Z,3.00
2018-01-29T12:31:32.296Z,2.60
2018-01-29T12:34:01.811Z,2.20
2018-01-29T12:36:30.139Z,2.40
2018-01-29T12:38:57.669Z,2.07
2018-01-29T12:41:26.283Z,2.47
2018-01-29T12:43:53.831Z,2.20
2018-01-29T12:46:21.363Z,2.90
2018-01-29T12:48:49.681Z,2.30
2018-01-29T12:51:17.236Z,2.00
2018-01-29T12:53:45.769Z,2.30
2018-01-29T12:56:13.356Z,2.17
2018-01-29T12:58:41.694Z,2.10
2018-01-29T13:01:09.272Z,1.60
2018-01-29T13:03:36.836Z,1.90
2018-01-29T13:06:04.382Z,2.40
2018-01-29T13:08:31.946Z,1.90
2018-01-29T13:11:00.024Z,2.00
2018-01-29T13:13:28.494Z,1.70
2018-01-29T13:15:56.042Z,1.70
2018-01-29T13:18:23.605Z,1.60
2018-01-29T13:20:51.272Z,1.80
2018-01-29T13:23:19.833Z,1.80
2018-01-29T13:25:47.413Z,1.73
2018-01-29T13:28:14.975Z,1.80
2018-01-29T13:30:42.519Z,2.07
2018-01-29T13:33:12.215Z,3.03
2018-01-29T13:35:41.978Z,2.07
2018-01-29T13:38:09.538Z,3.20
2018-01-29T13:40:37.109Z,2.20
2018-01-29T13:43:04.674Z,2.03
2018-01-29T13:45:32.214Z,1.83
2018-01-29T13:47:59.825Z,1.97
2018-01-29T13:50:28.178Z,2.03
2018-01-29T13:52:55.730Z,2.43
2018-01-29T13:55:23.317Z,1.93
2018-01-29T13:57:50.868Z,1.77
2018-01-29T14:00:18.433Z,1.73
2018-01-29T14:02:46.789Z,1.87
2018-01-29T14:05:14.339Z,1.90
2018-01-29T14:07:41.895Z,1.50
2018-01-29T14:10:09.462Z,1.87
2018-01-29T14:12:42.979Z,2.00
2018-01-29T14:15:10.570Z,2.00
2018-01-29T14:17:39.808Z,2.20
2018-01-29T14:20:07.341Z,2.43
2018-01-29T14:22:39.108Z,2.30
2018-01-29T14:25:07.448Z,2.57
2018-01-29T14:27:34.986Z,2.53
2018-01-29T14:30:03.379Z,3.30
2018-01-29T14:32:34.870Z,2.80
2018-01-29T14:35:02.501Z,2.90
2018-01-29T14:37:30.058Z,3.20
2018-01-29T14:39:57.675Z,3.60
2018-01-29T14:42:26.806Z,3.80
2018-01-29T14:44:54.391Z,3.10
2018-01-29T14:47:21.979Z,2.60
2018-01-29T14:49:50.575Z,2.90
2018-01-29T14:52:18.247Z,2.90
2018-01-29T14:54:46.580Z,2.57
2018-01-29T14:57:14.893Z,2.60
2018-01-29T14:59:42.496Z,2.57
2018-01-29T15:02:10.050Z,3.20
2018-01-29T15:04:38.569Z,3.60
2018-01-29T15:07:06.197Z,3.63
2018-01-29T15:09:33.799Z,3.87
2018-01-29T15:12:01.330Z,4.67
2018-01-29T15:14:39.646Z,5.60
2018-01-29T15:17:07.404Z,7.60
2018-01-29T15:19:34.958Z,4.83
2018-01-29T15:22:02.581Z,5.43
2018-01-29T15:24:30.125Z,5.27
2018-01-29T15:26:58.289Z,5.60
2018-01-29T15:29:25.872Z,6.63
2018-01-29T15:31:53.441Z,6.23
2018-01-29T15:34:34.109Z,6.37
2018-01-29T15:37:02.555Z,7.20
2018-01-29T15:39:31.701Z,6.17
2018-01-29T15:41:59.314Z,6.50
2018-01-29T15:44:29.883Z,6.97
2018-01-29T15:46:58.197Z,7.80
2018-01-29T15:49:27.164Z,7.77
2018-01-29T15:51:54.788Z,11.27
2018-01-29T15:54:26.287Z,11.40
2018-01-29T15:56:54.154Z,8.67
2018-01-29T15:59:21.704Z,10.00
2018-01-29T16:01:50.172Z,8.00
2018-01-29T16:04:17.778Z,10.07
2018-01-29T16:06:45.930Z,9.33
2018-01-29T16:09:13.476Z,8.80
2018-01-29T16:11:41.045Z,9.73
2018-01-29T16:14:08.591Z,9.23
2018-01-29T16:16:36.135Z,8.07
2018-01-29T16:19:03.747Z,8.27
2018-01-29T16:21:31.379Z,8.10
2018-01-29T16:23:59.904Z,7.60
2018-01-29T16:26:27.469Z,7.60
2018-01-29T16:28:55.048Z,7.77
2018-01-29T16:31:22.591Z,8.43
2018-01-29T16:33:51.944Z,8.90
2018-01-29T16:36:19.487Z,8.00
2018-01-29T16:38:49.882Z,7.63
2018-01-29T16:41:18.252Z,8.33
2018-01-29T16:43:47.348Z,9.20
2018-01-29T16:46:15.736Z,8.07
2018-01-29T16:48:43.400Z,7.97
2018-01-29T16:51:11.628Z,8.03
2018-01-29T16:53:39.244Z,6.93
2018-01-29T16:56:08.336Z,7.37
2018-01-29T16:58:37.279Z,7.63
2018-01-29T17:01:04.831Z,7.27
2018-01-29T17:03:36.655Z,7.30
2018-01-29T17:06:05.027Z,7.50
2018-01-29T17:08:33.343Z,7.47
2018-01-29T17:11:00.935Z,7.93
2018-01-29T17:13:28.513Z,9.70
2018-01-29T17:15:56.058Z,12.87
2018-01-29T17:18:23.680Z,13.37
2018-01-29T17:20:51.984Z,5.63
2018-01-29T17:23:20.468Z,9.83
2018-01-29T17:25:48.920Z,7.13
2018-01-29T17:28:16.531Z,6.90
2018-01-29T17:30:45.180Z,6.30
2018-01-29T17:33:12.776Z,6.80
2018-01-29T17:35:40.336Z,5.77
2018-01-29T17:38:08.045Z,6.03
2018-01-29T17:40:35.588Z,5.60
2018-01-29T17:43:03.237Z,5.30
2018-01-29T17:45:30.811Z,3.97
2018-01-29T17:47:58.404Z,4.03
2018-01-29T17:50:26.721Z,3.40
2018-01-29T17:52:55.227Z,3.40
2018-01-29T17:55:22.841Z,3.20
2018-01-29T17:57:51.271Z,2.50
2018-01-29T18:00:19.098Z,2.20
2018-01-29T18:02:54.691Z,2.17
2018-01-29T18:05:22.268Z,2.10
2018-01-29T18:07:49.816Z,1.97
2018-01-29T18:10:17.359Z,1.90
2018-01-29T18:12:46.316Z,1.97
2018-01-29T18:15:13.906Z,2.10
2018-01-29T18:17:41.450Z,2.03
2018-01-29T18:20:09.044Z,2.10
2018-01-29T18:22:41.629Z,2.00
2018-01-29T18:25:09.196Z,2.50
2018-01-29T18:27:36.753Z,2.40
2018-01-29T18:30:04.927Z,2.00
2018-01-29T18:32:32.517Z,2.10
2018-01-29T18:35:00.061Z,2.20
2018-01-29T18:37:27.635Z,1.97
2018-01-29T18:39:55.219Z,2.00
2018-01-29T18:42:23.563Z,2.40
2018-01-29T18:44:51.124Z,2.10
2018-01-29T18:47:20.271Z,2.13
2018-01-29T18:49:48.614Z,1.87
2018-01-29T18:52:16.160Z,1.70
2018-01-29T18:54:45.019Z,1.90
2018-01-29T18:57:12.693Z,1.67
2018-01-29T18:59:40.234Z,1.77
2018-01-29T19:02:07.823Z,1.60
2018-01-29T19:04:36.418Z,2.00
2018-01-29T19:07:03.984Z,1.80
2018-01-29T19:09:31.522Z,1.97
2018-01-29T19:11:59.095Z,8.37
2018-01-29T19:14:26.689Z,3.70
2018-01-29T19:16:54.241Z,66.03
2018-01-29T19:19:21.795Z,11.90
2018-01-29T19:21:49.862Z,8.10
2018-01-29T19:24:22.529Z,2.73
2018-01-29T19:26:50.138Z,2.57
2018-01-29T19:29:17.724Z,6.67
2018-01-29T19:31:46.048Z,6.07
2018-01-29T19:34:15.588Z,4.20
2018-01-29T19:36:43.862Z,7.60
2018-01-29T19:39:11.404Z,4.17
2018-01-29T19:41:39.040Z,5.90
2018-01-29T19:44:09.581Z,3.90
2018-01-29T19:46:37.201Z,3.00
2018-01-29T19:49:04.831Z,3.53
2018-01-29T19:51:32.377Z,5.40
2018-01-29T19:53:59.985Z,3.23
2018-01-29T19:56:32.943Z,4.27
2018-01-29T19:59:02.274Z,3.20
2018-01-29T20:01:45.285Z,3.57
2018-01-29T20:04:14.051Z,4.00
2018-01-29T20:06:41.676Z,5.83
2018-01-29T20:09:09.308Z,7.17
2018-01-29T20:11:36.895Z,2.70
2018-01-29T20:14:06.451Z,3.57
2018-01-29T20:16:34.047Z,14.73
2018-01-29T20:19:02.420Z,3.23
2018-01-29T20:21:30.000Z,9.97
2018-01-29T20:24:00.356Z,2.47
2018-01-29T20:26:28.266Z,4.33
2018-01-29T20:28:56.600Z,13.20
2018-01-29T20:31:24.285Z,17.27
2018-01-29T20:33:51.832Z,20.07
2018-01-29T20:36:19.409Z,9.13
2018-01-29T20:38:47.066Z,12.83
2018-01-29T20:41:14.725Z,4.43
2018-01-29T20:43:46.996Z,3.80
2018-01-29T20:46:15.328Z,4.43
2018-01-29T20:48:42.867Z,3.77
2018-01-29T20:51:13.073Z,3.50
2018-01-29T20:53:41.647Z,4.30
2018-01-29T20:56:09.298Z,4.30
2018-01-29T20:58:36.888Z,3.40
2018-01-29T21:01:05.442Z,6.17
2018-01-29T21:03:33.042Z,2.93
2018-01-29T21:06:00.660Z,5.83
2018-01-29T21:08:28.282Z,5.50
2018-01-29T21:10:56.127Z,2.27
2018-01-29T21:13:23.747Z,2.70
2018-01-29T21:15:51.445Z,2.73
2018-01-29T21:18:19.126Z,3.27
2018-01-29T21:20:46.717Z,2.53
2018-01-29T21:23:16.389Z,3.60
2018-01-29T21:25:43.940Z,4.87
2018-01-29T21:28:11.509Z,2.73
2018-01-29T21:30:39.101Z,2.93
2018-01-29T21:33:07.672Z,4.70
2018-01-29T21:35:35.274Z,6.80
2018-01-29T21:38:02.949Z,8.33
2018-01-29T21:40:31.214Z,3.93
2018-01-29T21:43:04.768Z,14.07
2018-01-29T21:45:32.326Z,4.33
2018-01-29T21:47:59.864Z,5.67
2018-01-29T21:50:27.479Z,3.70
2018-01-29T21:53:03.396Z,4.07
2018-01-29T21:55:32.647Z,3.93
2018-01-29T21:58:03.450Z,4.20
2018-01-29T22:00:31.099Z,3.70
2018-01-29T22:02:58.655Z,3.50
2018-01-29T22:05:26.352Z,3.40
2018-01-29T22:07:54.030Z,2.80
2018-01-29T22:10:21.637Z,2.43
2018-01-29T22:12:50.363Z,2.83
2018-01-29T22:15:18.723Z,2.60
2018-01-29T22:17:46.324Z,2.13
2018-01-29T22:20:14.646Z,2.50
2018-01-29T22:22:42.283Z,2.80
2018-01-29T22:25:09.837Z,4.50
2018-01-29T22:27:37.368Z,5.20
2018-01-29T22:30:05.010Z,5.07
2018-01-29T22:32:34.048Z,4.93
2018-01-29T22:35:01.630Z,4.37
2018-01-29T22:37:29.970Z,6.00
2018-01-29T22:39:57.578Z,5.87
2018-01-29T22:42:25.142Z,3.80
2018-01-29T22:44:53.491Z,4.67
2018-01-29T22:47:21.048Z,3.43
2018-01-29T22:49:48.615Z,3.10
2018-01-29T22:52:16.975Z,3.20
2018-01-29T22:54:45.591Z,3.97
2018-01-29T22:57:15.024Z,4.63
2018-01-29T22:59:42.621Z,4.13
2018-01-29T23:02:10.870Z,3.83
2018-01-29T23:04:39.184Z,3.77
2018-01-29T23:07:06.788Z,3.70
2018-01-29T23:09:35.093Z,6.70
2018-01-29T23:12:02.672Z,5.97
2018-01-29T23:14:31.258Z,3.07
2018-01-29T23:16:58.792Z,3.70
2018-01-29T23:19:27.280Z,4.33
2018-01-29T23:21:54.912Z,3.50
2018-01-29T23:24:23.441Z,3.43
2018-01-29T23:26:50.981Z,3.27
2018-01-29T23:29:19.320Z,3.13
2018-01-29T23:31:46.895Z,3.20
2018-01-29T23:34:15.450Z,3.63
2018-01-29T23:36:43.047Z,3.20
2018-01-29T23:39:10.603Z,3.20
2018-01-29T23:41:38.159Z,3.27
2018-01-29T23:44:05.740Z,3.90
2018-01-29T23:46:33.284Z,3.97
2018-01-29T23:49:00.832Z,4.03
2018-01-29T23:51:28.407Z,4.33
2018-01-29T23:53:59.609Z,3.70
2018-01-29T23:56:27.512Z,4.03
2018-01-29T23:58:55.110Z,3.70
